Time,TemperatureF,DewpointF,PressureIn,WindDirection,WindDirectionDegrees,WindSpeedMPH,WindSpeedGustMPH,Humidity,HourlyPrecipIn,Conditions,Clouds,dailyrainin,SolarRadiationWatts/m^2,SoftwareType,DateUTC
2013-03-04 00:10:00,30.7,19.0,29.78,WNW,292,9.0,13.0,62,0.00,,,0.00,0,weatherlink.com 1.10,2013-03-04 05:10:00,
2013-03-04 00:25:00,30.6,19.0,29.78,NW,304,6.0,13.0,62,0.00,,,0.00,0,weatherlink.com 1.10,2013-03-04 05:25:00,
2013-03-04 00:40:00,30.3,19.0,29.78,WNW,288,2.0,11.0,62,0.00,,,0.00,0,weatherlink.com 1.10,2013-03-04 05:40:00,
2013-03-04 00:55:00,30.2,18.0,29.78,WNW,293,8.0,12.0,62,0.00,,,0.00,0,weatherlink.com 1.10,2013-03-04 05:55:00,
2013-03-04 01:10:00,30.1,18.0,29.79,NNW,346,8.0,14.0,62,0.00,,,0.00,0,weatherlink.com 1.10,2013-03-04 06:10:00,
2013-03-04 01:25:00,30.0,18.0,29.79,WNW,297,11.0,17.0,61,0.00,,,0.00,0,weatherlink.com 1.10,2013-03-04 06:25:00,
2013-03-04 01:40:00,29.9,18.0,29.79,WNW,290,8.0,17.0,61,0.00,,,0.00,0,weatherlink.com 1.10,2013-03-04 06:40:00,
2013-03-04 01:55:00,29.6,18.0,29.79,WNW,292,4.0,12.0,63,0.00,,,0.00,0,weatherlink.com 1.10,2013-03-04 06:55:00,
2013-03-04 02:10:00,29.5,18.0,29.79,WNW,296,3.0,11.0,63,0.00,,,0.00,0,weatherlink.com 1.10,2013-03-04 07:10:00,
2013-03-04 02:25:00,29.2,18.0,29.79,WNW,283,7.0,11.0,64,0.00,,,0.00,0,weatherlink.com 1.10,2013-03-04 07:25:00,
2013-03-04 02:40:00,29.1,18.0,29.79,WNW,288,2.0,12.0,64,0.00,,,0.00,0,weatherlink.com 1.10,2013-03-04 07:40:00,
2013-03-04 02:55:00,29.0,19.0,29.79,WNW,293,3.0,9.0,65,0.00,,,0.00,0,weatherlink.com 1.10,2013-03-04 07:55:00,
2013-03-04 03:10:00,28.9,18.0,29.79,West,278,10.0,13.0,65,0.00,,,0.00,0,weatherlink.com 1.10,2013-03-04 08:10:00,
2013-03-04 03:25:00,28.8,18.0,29.79,West,280,5.0,13.0,65,0.00,,,0.00,0,weatherlink.com 1.10,2013-03-04 08:25:00,
2013-03-04 03:40:00,28.8,18.0,29.80,WNW,283,8.0,15.0,65,0.00,,,0.00,0,weatherlink.com 1.10,2013-03-04 08:40:00,
2013-03-04 03:55:00,28.7,19.0,29.80,West,270,4.0,12.0,66,0.00,,,0.00,0,weatherlink.com 1.10,2013-03-04 08:55:00,
2013-03-04 04:10:00,28.7,19.0,29.80,West,276,8.0,13.0,66,0.00,,,0.00,0,weatherlink.com 1.10,2013-03-04 09:10:00,
2013-03-04 04:27:00,28.7,19.0,29.80,WNW,297,4.0,12.0,67,0.00,,,0.00,0,weatherlink.com 1.10,2013-03-04 09:27:00,
2013-03-04 04:40:00,28.8,19.0,29.80,WNW,286,3.0,15.0,66,0.00,,,0.00,0,weatherlink.com 1.10,2013-03-04 09:40:00,
2013-03-04 04:55:00,28.7,19.0,29.81,WNW,302,5.0,12.0,67,0.00,,,0.00,0,weatherlink.com 1.10,2013-03-04 09:55:00,
2013-03-04 05:10:00,28.6,19.0,29.81,WNW,288,11.0,12.0,67,0.00,,,0.00,0,weatherlink.com 1.10,2013-03-04 10:10:00,
2013-03-04 05:26:00,28.5,19.0,29.81,West,265,9.0,9.0,68,0.00,,,0.00,0,weatherlink.com 1.10,2013-03-04 10:26:00,
2013-03-04 05:41:00,28.4,19.0,29.82,WNW,292,6.0,11.0,68,0.00,,,0.00,0,weatherlink.com 1.10,2013-03-04 10:41:00,
2013-03-04 05:56:00,28.3,19.0,29.81,NW,306,3.0,9.0,68,0.00,,,0.00,0,weatherlink.com 1.10,2013-03-04 10:56:00,
2013-03-04 06:11:00,28.4,19.0,29.82,WNW,298,7.0,10.0,68,0.00,,,0.00,0,weatherlink.com 1.10,2013-03-04 11:11:00,
2013-03-04 06:26:00,28.4,19.0,29.82,WNW,297,8.0,10.0,68,0.00,,,0.00,5,weatherlink.com 1.10,2013-03-04 11:26:00,
2013-03-04 06:41:00,28.5,20.0,29.82,WNW,282,6.0,12.0,69,0.00,,,0.00,11,weatherlink.com 1.10,2013-03-04 11:41:00,
2013-03-04 06:56:00,28.8,19.0,29.83,NNW,338,4.0,13.0,68,0.00,,,0.00,18,weatherlink.com 1.10,2013-03-04 11:56:00,
2013-03-04 07:11:00,29.3,20.0,29.83,NW,308,11.0,16.0,68,0.00,,,0.00,23,weatherlink.com 1.10,2013-03-04 12:11:00,
2013-03-04 07:26:00,29.9,20.0,29.83,West,274,9.0,13.0,67,0.00,,,0.00,33,weatherlink.com 1.10,2013-03-04 12:26:00,
2013-03-04 07:41:00,30.4,20.0,29.83,WNW,292,7.0,16.0,66,0.00,,,0.00,51,weatherlink.com 1.10,2013-03-04 12:41:00,
2013-03-04 07:56:00,31.0,20.0,29.83,WNW,289,5.0,14.0,65,0.00,,,0.00,46,weatherlink.com 1.10,2013-03-04 12:56:00,
2013-03-04 08:11:00,31.4,21.0,29.83,NNW,337,15.0,17.0,65,0.00,,,0.00,49,weatherlink.com 1.10,2013-03-04 13:11:00,
2013-03-04 08:26:00,31.6,21.0,29.83,WNW,292,7.0,19.0,64,0.00,,,0.00,56,weatherlink.com 1.10,2013-03-04 13:26:00,
2013-03-04 08:41:00,32.2,21.0,29.83,NW,312,4.0,16.0,64,0.00,,,0.00,77,weatherlink.com 1.10,2013-03-04 13:41:00,
2013-03-04 08:56:00,32.5,21.0,29.83,WNW,293,4.0,22.0,63,0.00,,,0.00,121,weatherlink.com 1.10,2013-03-04 13:56:00,
2013-03-04 09:11:00,33.3,21.0,29.83,WNW,287,11.0,15.0,62,0.00,,,0.00,529,weatherlink.com 1.10,2013-03-04 14:11:00,
2013-03-04 09:26:00,33.7,21.0,29.83,WNW,286,14.0,16.0,61,0.00,,,0.00,568,weatherlink.com 1.10,2013-03-04 14:26:00,
2013-03-04 09:41:00,34.2,21.0,29.83,West,277,10.0,18.0,59,0.00,,,0.00,601,weatherlink.com 1.10,2013-03-04 14:41:00,
2013-03-04 09:56:00,34.2,21.0,29.83,West,280,10.0,18.0,59,0.00,,,0.00,635,weatherlink.com 1.10,2013-03-04 14:56:00,
2013-03-04 10:11:00,34.9,21.0,29.83,WNW,288,11.0,17.0,58,0.00,,,0.00,671,weatherlink.com 1.10,2013-03-04 15:11:00,
2013-03-04 10:26:00,35.1,21.0,29.83,WNW,296,13.0,18.0,58,0.00,,,0.00,689,weatherlink.com 1.10,2013-03-04 15:26:00,
2013-03-04 10:41:00,35.5,21.0,29.83,West,268,8.0,21.0,57,0.00,,,0.00,717,weatherlink.com 1.10,2013-03-04 15:41:00,
2013-03-04 10:56:00,35.6,22.0,29.83,NW,308,11.0,24.0,57,0.00,,,0.00,733,weatherlink.com 1.10,2013-03-04 15:56:00,
2013-03-04 11:11:00,35.7,21.0,29.83,WNW,282,6.0,23.0,55,0.00,,,0.00,749,weatherlink.com 1.10,2013-03-04 16:11:00,
2013-03-04 11:26:00,36.4,21.0,29.83,WNW,287,8.0,22.0,54,0.00,,,0.00,765,weatherlink.com 1.10,2013-03-04 16:26:00,
2013-03-04 11:41:00,36.9,21.0,29.82,NW,309,9.0,22.0,52,0.00,,,0.00,770,weatherlink.com 1.10,2013-03-04 16:41:00,
2013-03-04 11:57:00,37.8,21.0,29.82,West,279,7.0,17.0,51,0.00,,,0.00,772,weatherlink.com 1.10,2013-03-04 16:57:00,
2013-03-04 12:12:00,38.4,21.0,29.82,WNW,289,12.0,21.0,50,0.00,,,0.00,775,weatherlink.com 1.10,2013-03-04 17:12:00,
2013-03-04 12:27:00,38.7,21.0,29.81,West,273,10.0,16.0,50,0.00,,,0.00,770,weatherlink.com 1.10,2013-03-04 17:27:00,
2013-03-04 12:42:00,39.5,22.0,29.81,WNW,290,5.0,17.0,49,0.00,,,0.00,756,weatherlink.com 1.10,2013-03-04 17:42:00,
2013-03-04 12:57:00,39.7,22.0,29.80,NW,304,10.0,20.0,50,0.00,,,0.00,744,weatherlink.com 1.10,2013-03-04 17:57:00,
2013-03-04 13:12:00,40.6,23.0,29.80,WNW,291,6.0,19.0,49,0.00,,,0.00,726,weatherlink.com 1.10,2013-03-04 18:12:00,
2013-03-04 13:27:00,40.2,22.0,29.79,WNW,300,9.0,21.0,49,0.00,,,0.00,707,weatherlink.com 1.10,2013-03-04 18:27:00,
2013-03-04 13:42:00,40.3,22.0,29.79,West,280,11.0,23.0,48,0.00,,,0.00,679,weatherlink.com 1.10,2013-03-04 18:42:00,
2013-03-04 13:57:00,40.5,22.0,29.79,North,9,11.0,23.0,48,0.00,,,0.00,642,weatherlink.com 1.10,2013-03-04 18:57:00,
2013-03-04 14:12:00,41.2,23.0,29.79,WNW,292,8.0,23.0,48,0.00,,,0.00,619,weatherlink.com 1.10,2013-03-04 19:12:00,
2013-03-04 14:27:00,41.2,23.0,29.79,West,270,10.0,24.0,48,0.00,,,0.00,578,weatherlink.com 1.10,2013-03-04 19:27:00,
2013-03-04 14:42:00,41.6,23.0,29.79,West,263,12.0,18.0,47,0.00,,,0.00,548,weatherlink.com 1.10,2013-03-04 19:42:00,
2013-03-04 14:57:00,41.5,23.0,29.79,West,275,8.0,18.0,48,0.00,,,0.00,483,weatherlink.com 1.10,2013-03-04 19:57:00,
2013-03-04 15:12:00,41.3,23.0,29.79,West,277,13.0,19.0,48,0.00,,,0.00,47,weatherlink.com 1.10,2013-03-04 20:12:00,
2013-03-04 15:27:00,41.4,23.0,29.79,WNW,283,10.0,21.0,48,0.00,,,0.00,46,weatherlink.com 1.10,2013-03-04 20:27:00,
2013-03-04 15:42:00,41.7,23.0,29.79,NW,317,2.0,19.0,48,0.00,,,0.00,44,weatherlink.com 1.10,2013-03-04 20:42:00,
2013-03-04 15:57:00,41.8,23.0,29.79,NW,304,3.0,18.0,47,0.00,,,0.00,42,weatherlink.com 1.10,2013-03-04 20:57:00,
2013-03-04 16:12:00,42.0,23.0,29.79,WNW,284,9.0,17.0,47,0.00,,,0.00,40,weatherlink.com 1.10,2013-03-04 21:12:00,
2013-03-04 16:27:00,42.0,23.0,29.80,WNW,286,8.0,16.0,47,0.00,,,0.00,39,weatherlink.com 1.10,2013-03-04 21:27:00,
2013-03-04 16:42:00,41.5,22.0,29.80,WNW,302,5.0,19.0,47,0.00,,,0.00,35,weatherlink.com 1.10,2013-03-04 21:42:00,
2013-03-04 16:57:00,41.2,22.0,29.80,NW,310,4.0,20.0,46,0.00,,,0.00,32,weatherlink.com 1.10,2013-03-04 21:57:00,
2013-03-04 17:12:00,41.4,22.0,29.80,NW,311,6.0,16.0,47,0.00,,,0.00,46,weatherlink.com 1.10,2013-03-04 22:12:00,
2013-03-04 17:27:00,40.9,22.0,29.81,West,274,10.0,16.0,47,0.00,,,0.00,19,weatherlink.com 1.10,2013-03-04 22:27:00,
2013-03-04 17:44:00,40.0,22.0,29.82,West,274,9.0,18.0,49,0.00,,,0.00,11,weatherlink.com 1.10,2013-03-04 22:44:00,
2013-03-04 17:57:00,39.4,22.0,29.82,West,269,6.0,11.0,50,0.00,,,0.00,0,weatherlink.com 1.10,2013-03-04 22:57:00,
2013-03-04 18:12:00,38.9,22.0,29.83,WNW,294,5.0,13.0,50,0.00,,,0.00,0,weatherlink.com 1.10,2013-03-04 23:12:00,
2013-03-04 18:27:00,38.6,22.0,29.84,WNW,286,7.0,14.0,51,0.00,,,0.00,0,weatherlink.com 1.10,2013-03-04 23:27:00,
2013-03-04 18:44:00,38.2,22.0,29.84,WNW,283,9.0,14.0,52,0.00,,,0.00,0,weatherlink.com 1.10,2013-03-04 23:44:00,
2013-03-04 18:57:00,37.9,22.0,29.85,West,277,6.0,13.0,53,0.00,,,0.00,0,weatherlink.com 1.10,2013-03-04 23:57:00,
2013-03-04 19:12:00,37.8,22.0,29.86,WNW,284,7.0,15.0,54,0.00,,,0.00,0,weatherlink.com 1.10,2013-03-05 00:12:00,
2013-03-04 19:27:00,37.5,22.0,29.86,NW,315,12.0,15.0,54,0.00,,,0.00,0,weatherlink.com 1.10,2013-03-05 00:27:00,
2013-03-04 19:42:00,37.2,22.0,29.87,WNW,286,8.0,15.0,55,0.00,,,0.00,0,weatherlink.com 1.10,2013-03-05 00:42:00,
2013-03-04 19:57:00,36.9,22.0,29.88,WNW,283,8.0,15.0,56,0.00,,,0.00,0,weatherlink.com 1.10,2013-03-05 00:57:00,
2013-03-04 20:12:00,36.4,22.0,29.88,WNW,290,8.0,12.0,57,0.00,,,0.00,0,weatherlink.com 1.10,2013-03-05 01:12:00,
2013-03-04 20:27:00,36.0,22.0,29.88,WNW,293,4.0,13.0,58,0.00,,,0.00,0,weatherlink.com 1.10,2013-03-05 01:27:00,
2013-03-04 20:42:00,35.7,22.0,29.88,West,281,5.0,11.0,59,0.00,,,0.00,0,weatherlink.com 1.10,2013-03-05 01:42:00,
2013-03-04 20:57:00,35.2,22.0,29.88,West,276,0.0,8.0,60,0.00,,,0.00,0,weatherlink.com 1.10,2013-03-05 01:57:00,
2013-03-04 21:12:00,35.0,23.0,29.89,WNW,294,4.0,9.0,61,0.00,,,0.00,0,weatherlink.com 1.10,2013-03-05 02:12:00,
2013-03-04 21:27:00,34.7,22.0,29.89,NW,304,2.0,10.0,61,0.00,,,0.00,0,weatherlink.com 1.10,2013-03-05 02:27:00,
2013-03-04 21:42:00,34.6,23.0,29.90,NW,310,5.0,8.0,62,0.00,,,0.00,0,weatherlink.com 1.10,2013-03-05 02:42:00,
2013-03-04 21:57:00,34.4,22.0,29.90,WNW,289,4.0,8.0,62,0.00,,,0.00,0,weatherlink.com 1.10,2013-03-05 02:57:00,
2013-03-04 22:12:00,34.2,23.0,29.91,WNW,302,3.0,8.0,63,0.00,,,0.00,0,weatherlink.com 1.10,2013-03-05 03:12:00,
2013-03-04 22:27:00,33.9,23.0,29.91,WNW,289,4.0,7.0,64,0.00,,,0.00,0,weatherlink.com 1.10,2013-03-05 03:27:00,
2013-03-04 22:42:00,33.7,23.0,29.91,WNW,296,3.0,7.0,65,0.00,,,0.00,0,weatherlink.com 1.10,2013-03-05 03:42:00,
2013-03-04 22:57:00,33.5,23.0,29.91,West,274,1.0,7.0,65,0.00,,,0.00,0,weatherlink.com 1.10,2013-03-05 03:57:00,
2013-03-04 23:12:00,33.3,23.0,29.91,WNW,289,1.0,6.0,66,0.00,,,0.00,0,weatherlink.com 1.10,2013-03-05 04:12:00,
2013-03-04 23:27:00,33.1,23.0,29.92,WNW,298,1.0,7.0,66,0.00,,,0.00,0,weatherlink.com 1.10,2013-03-05 04:27:00,
2013-03-04 23:42:00,33.2,23.0,29.92,NW,313,3.0,9.0,66,0.00,,,0.00,0,weatherlink.com 1.10,2013-03-05 04:42:00,
2013-03-04 23:57:00,33.7,23.0,29.92,West,275,6.0,12.0,66,0.00,,,0.00,0,weatherlink.com 1.10,2013-03-05 04:57:00,